createdAt,value
2017-11-15T00:01:41.203Z,101029.53
2017-11-15T00:04:43.353Z,101034.42
2017-11-15T00:07:44.721Z,101034.41
2017-11-15T00:10:46.806Z,101026.46
2017-11-15T00:13:48.164Z,101019.38
2017-11-15T00:16:56.604Z,101028.70
2017-11-15T00:19:58.050Z,101022.53
2017-11-15T00:22:59.420Z,101019.90
2017-11-15T00:26:00.797Z,101018.13
2017-11-15T00:29:02.185Z,101023.42
2017-11-15T00:32:03.571Z,101030.88
2017-11-15T00:35:04.979Z,101031.32
2017-11-15T00:38:06.413Z,101039.68
2017-11-15T00:41:08.530Z,101033.52
2017-11-15T00:44:09.891Z,101041.88
2017-11-15T00:47:11.264Z,101033.92
2017-11-15T00:50:12.665Z,101037.46
2017-11-15T00:53:14.011Z,101037.91
2017-11-15T00:56:15.392Z,101035.30
2017-11-15T00:59:16.785Z,101007.13
2017-11-15T01:02:18.937Z,101033.08
2017-11-15T01:05:20.323Z,101030.88
2017-11-15T01:08:21.686Z,101040.06
2017-11-15T01:11:23.102Z,101040.52
2017-11-15T01:14:25.209Z,101040.52
2017-11-15T01:17:26.573Z,101044.41
2017-11-15T01:20:27.958Z,101052.45
2017-11-15T01:23:29.373Z,101046.27
2017-11-15T01:26:30.790Z,101034.80
2017-11-15T01:29:32.924Z,101033.96
2017-11-15T01:32:34.237Z,101034.40
2017-11-15T01:35:35.630Z,101030.44
2017-11-15T01:38:37.165Z,101029.11
2017-11-15T01:41:38.580Z,101019.44
2017-11-15T01:44:40.034Z,101034.41
2017-11-15T01:47:41.432Z,101036.15
2017-11-15T01:50:42.855Z,101031.72
2017-11-15T01:53:44.258Z,101037.48
2017-11-15T01:56:46.446Z,101030.02
2017-11-15T01:59:48.664Z,101037.05
2017-11-15T02:02:50.052Z,101040.08
2017-11-15T02:05:52.205Z,101032.59
2017-11-15T02:08:53.566Z,101027.36
2017-11-15T02:11:55.717Z,101028.64
2017-11-15T02:14:57.089Z,101025.94
2017-11-15T02:22:04.212Z,101031.14
2017-11-15T02:25:05.613Z,101030.77
2017-11-15T02:28:07.049Z,101015.93
2017-11-15T02:31:08.482Z,101021.52
2017-11-15T02:34:09.927Z,101022.43
2017-11-15T02:37:11.404Z,101023.33
2017-11-15T02:40:12.864Z,101020.80
2017-11-15T02:43:14.272Z,101020.79
2017-11-15T02:46:16.393Z,101017.66
2017-11-15T02:49:17.803Z,101021.66
2017-11-15T02:52:19.184Z,101016.77
2017-11-15T02:55:20.661Z,101015.84
2017-11-15T02:58:22.005Z,101006.97
2017-11-15T03:01:23.517Z,101006.55
2017-11-15T03:04:24.888Z,101004.42
2017-11-15T03:07:26.338Z,101004.06
2017-11-15T03:10:27.745Z,101011.08
2017-11-15T03:13:29.333Z,101016.73
2017-11-15T03:16:30.713Z,101004.42
2017-11-15T03:19:39.019Z,101005.61
2017-11-15T03:22:40.353Z,101004.41
2017-11-15T03:25:41.773Z,101000.50
2017-11-15T03:28:43.952Z,100991.54
2017-11-15T03:31:45.319Z,101004.89
2017-11-15T03:34:46.756Z,101001.38
2017-11-15T03:37:48.916Z,101003.20
2017-11-15T03:40:51.117Z,101002.75
2017-11-15T03:43:52.497Z,101002.77
2017-11-15T03:46:53.819Z,101000.56
2017-11-15T03:49:55.262Z,101019.47
2017-11-15T03:52:56.596Z,101009.34
2017-11-15T03:55:58.019Z,100995.17
2017-11-15T03:58:59.418Z,100999.61
2017-11-15T04:02:00.766Z,101000.09
2017-11-15T04:05:02.220Z,100997.47
2017-11-15T04:08:03.590Z,101005.36
2017-11-15T04:11:05.017Z,101003.63
2017-11-15T04:14:06.474Z,101005.81
2017-11-15T04:17:07.819Z,101012.86
2017-11-15T04:20:09.224Z,101016.82
2017-11-15T04:23:10.646Z,101010.20
2017-11-15T04:26:11.984Z,101021.16
2017-11-15T04:29:13.387Z,101015.05
2017-11-15T04:32:15.467Z,101022.10
2017-11-15T04:35:17.602Z,101017.70
2017-11-15T04:38:19.013Z,101021.66
2017-11-15T04:41:20.402Z,101018.12
2017-11-15T04:44:21.806Z,101020.20
2017-11-15T04:47:23.185Z,101018.50
2017-11-15T04:50:24.578Z,101014.10
2017-11-15T04:53:26.658Z,101017.22
2017-11-15T04:56:28.776Z,101026.95
2017-11-15T04:59:30.150Z,101022.10
2017-11-15T05:02:31.497Z,101030.44
2017-11-15T05:05:32.858Z,101020.33
2017-11-15T05:08:34.225Z,101026.92
2017-11-15T05:11:36.318Z,101020.34
2017-11-15T05:14:37.712Z,101035.75
2017-11-15T05:17:39.128Z,101033.42
2017-11-15T05:20:40.502Z,101034.84
2017-11-15T05:23:41.923Z,101044.97
2017-11-15T05:26:43.278Z,101044.54
2017-11-15T05:29:44.685Z,101045.84
2017-11-15T05:32:46.066Z,101039.25
2017-11-15T05:35:48.265Z,101034.80
2017-11-15T05:38:49.701Z,101032.66
2017-11-15T05:41:51.142Z,101030.02
2017-11-15T05:44:53.270Z,101033.53
2017-11-15T05:47:54.657Z,101031.73
2017-11-15T05:50:56.738Z,101031.25
2017-11-15T05:53:58.127Z,101041.78
2017-11-15T05:56:59.579Z,101038.23
2017-11-15T06:00:00.953Z,101045.73
2017-11-15T06:03:02.332Z,101054.55
2017-11-15T06:06:04.440Z,101055.00
2017-11-15T06:09:05.822Z,101050.48
2017-11-15T06:12:07.287Z,101058.86
2017-11-15T06:15:09.351Z,101061.58
2017-11-15T06:18:10.737Z,101065.97
2017-11-15T06:21:12.103Z,101058.86
2017-11-15T06:24:13.532Z,101054.51
2017-11-15T06:27:15.097Z,101063.82
2017-11-15T06:30:16.447Z,101056.30
2017-11-15T06:33:17.721Z,101057.53
2017-11-15T06:36:19.156Z,101050.94
2017-11-15T06:39:20.532Z,101059.28
2017-11-15T06:42:21.800Z,101063.69
2017-11-15T06:45:23.084Z,101065.91
2017-11-15T06:48:24.389Z,101069.83
2017-11-15T06:51:25.682Z,101068.09
2017-11-15T06:54:27.050Z,101082.71
2017-11-15T06:57:28.358Z,101072.06
2017-11-15T07:00:29.728Z,101070.27
2017-11-15T07:03:31.777Z,101078.64
2017-11-15T07:06:33.066Z,101071.58
2017-11-15T07:09:34.413Z,101075.52
2017-11-15T07:12:35.734Z,101080.51
2017-11-15T07:15:37.737Z,101086.31
2017-11-15T07:18:39.037Z,101081.33
2017-11-15T07:21:40.338Z,101088.77
2017-11-15T07:24:41.644Z,101083.43
2017-11-15T07:27:43.701Z,101092.63
2017-11-15T07:30:44.965Z,101089.55
2017-11-15T07:33:47.036Z,101092.61
2017-11-15T07:36:49.150Z,101088.70
2017-11-15T07:39:50.540Z,101093.09
2017-11-15T07:42:52.665Z,101098.64
2017-11-15T07:45:53.959Z,101102.50
2017-11-15T07:48:55.988Z,101106.78
2017-11-15T07:51:57.296Z,101109.62
2017-11-15T07:54:58.578Z,101102.36
2017-11-15T07:57:59.903Z,101106.05
2017-11-15T08:01:01.150Z,101099.39
2017-11-15T08:04:02.470Z,101101.80
2017-11-15T08:07:04.525Z,101101.48
2017-11-15T08:10:05.813Z,101108.92
2017-11-15T08:13:07.159Z,101114.59
2017-11-15T08:16:08.440Z,101109.23
2017-11-15T08:19:09.731Z,101110.49
2017-11-15T08:22:11.808Z,101108.36
2017-11-15T08:25:13.844Z,101115.17
2017-11-15T08:28:15.149Z,101112.33
2017-11-15T08:31:16.449Z,101111.92
2017-11-15T08:34:17.738Z,101114.91
2017-11-15T08:37:19.033Z,101111.37
2017-11-15T08:40:20.418Z,101115.67
2017-11-15T08:43:22.838Z,101114.59
2017-11-15T08:46:24.184Z,101110.27
2017-11-15T08:49:25.494Z,101113.91
2017-11-15T08:52:27.573Z,101109.20
2017-11-15T08:55:28.870Z,101108.80
2017-11-15T08:58:30.240Z,101099.34
2017-11-15T09:01:31.552Z,101110.22
2017-11-15T09:04:32.872Z,101111.89
2017-11-15T09:07:34.179Z,101105.93
2017-11-15T09:10:35.501Z,101115.15
2017-11-15T09:13:36.809Z,101104.68
2017-11-15T09:16:38.838Z,101103.72
2017-11-15T09:19:40.156Z,101110.74
2017-11-15T09:22:41.412Z,101114.63
2017-11-15T09:25:42.738Z,101113.60
2017-11-15T09:28:44.042Z,101112.23
2017-11-15T09:31:45.359Z,101120.93
2017-11-15T09:34:46.668Z,101118.47
2017-11-15T09:37:48.689Z,101125.09
2017-11-15T09:40:50.005Z,101132.41
2017-11-15T09:43:51.285Z,101130.11
2017-11-15T09:46:52.624Z,101128.77
2017-11-15T09:49:53.943Z,101130.62
2017-11-15T09:52:55.258Z,101136.66
2017-11-15T09:55:57.312Z,101137.17
2017-11-15T09:58:58.596Z,101135.71
2017-11-15T10:02:00.898Z,101132.77
2017-11-15T10:05:02.804Z,101133.30
2017-11-15T10:08:05.149Z,101134.32
2017-11-15T10:11:07.565Z,101127.86
2017-11-15T10:14:09.956Z,101137.22
2017-11-15T10:17:11.257Z,101140.78
2017-11-15T10:20:12.607Z,101144.73
2017-11-15T10:23:13.869Z,101134.60
2017-11-15T10:26:15.190Z,101136.38
2017-11-15T10:29:16.481Z,101139.05
2017-11-15T10:32:17.788Z,101137.00
2017-11-15T10:35:19.127Z,101119.89
2017-11-15T10:38:20.527Z,101127.47
2017-11-15T10:41:21.825Z,101126.01
2017-11-15T10:44:23.147Z,101125.39
2017-11-15T10:47:25.164Z,101123.62
2017-11-15T10:50:26.445Z,101120.50
2017-11-15T10:53:27.723Z,101111.20
2017-11-15T10:56:29.784Z,101106.75
2017-11-15T10:59:31.858Z,101102.18
2017-11-15T11:02:33.264Z,101103.84
2017-11-15T11:05:35.320Z,101095.15
2017-11-15T11:08:36.596Z,101102.41
2017-11-15T11:11:37.884Z,101095.53
2017-11-15T11:14:39.180Z,101100.52
2017-11-15T11:17:40.505Z,101096.41
2017-11-15T11:20:41.785Z,101087.75
2017-11-15T11:23:43.084Z,101104.63
2017-11-15T11:26:44.361Z,101098.98
2017-11-15T11:29:45.656Z,101102.52
2017-11-15T11:32:47.743Z,101106.28
2017-11-15T11:35:49.029Z,101100.46
2017-11-15T11:38:51.074Z,101094.20
2017-11-15T11:41:53.177Z,101096.34
2017-11-15T11:44:54.506Z,101098.21
2017-11-15T11:47:55.832Z,101097.36
2017-11-15T11:50:57.212Z,101096.55
2017-11-15T11:53:58.645Z,101088.95
2017-11-15T11:56:59.957Z,101094.89
2017-11-15T12:00:02.216Z,101105.80
2017-11-15T12:03:03.654Z,101099.35
2017-11-15T12:06:05.053Z,101089.99
2017-11-15T12:09:06.354Z,101095.99
2017-11-15T12:12:07.673Z,101092.50
2017-11-15T12:15:08.922Z,101086.22
2017-11-15T12:18:10.248Z,101089.11
2017-11-15T12:21:11.569Z,101085.34
2017-11-15T12:24:13.385Z,101077.39
2017-11-15T12:27:14.685Z,101078.32
2017-11-15T12:30:16.748Z,101076.36
2017-11-15T12:33:18.095Z,101076.28
2017-11-15T12:36:20.214Z,101071.61
2017-11-15T12:39:21.567Z,101070.09
2017-11-15T12:42:24.299Z,101068.75
2017-11-15T12:45:25.806Z,101061.55
2017-11-15T12:48:27.188Z,101066.89
2017-11-15T12:51:29.331Z,101059.55
2017-11-15T12:54:31.158Z,101063.55
2017-11-15T12:57:32.549Z,101077.05
2017-11-15T13:00:33.891Z,101070.94
2017-11-15T13:03:35.124Z,101069.46
2017-11-15T13:06:36.418Z,101074.52
2017-11-15T13:09:37.713Z,101069.33
2017-11-15T13:12:39.010Z,101066.23
2017-11-15T13:15:40.340Z,101066.57
2017-11-15T13:18:41.655Z,101066.63
2017-11-15T13:21:42.950Z,101066.56
2017-11-15T13:24:44.277Z,101067.95
2017-11-15T13:27:45.583Z,101069.49
2017-11-15T13:30:47.651Z,101066.84
2017-11-15T13:33:49.754Z,101056.06
2017-11-15T13:36:51.070Z,101064.03
2017-11-15T13:39:53.132Z,101059.52
2017-11-15T13:42:55.180Z,101063.36
2017-11-15T13:45:56.518Z,101060.92
2017-11-15T13:48:57.801Z,101048.92
2017-11-15T13:51:59.886Z,101055.05
2017-11-15T13:55:01.161Z,101065.09
2017-11-15T13:58:02.463Z,101066.19
2017-11-15T14:01:04.487Z,101055.66
2017-11-15T14:04:05.807Z,101060.27
2017-11-15T14:07:07.093Z,101049.77
2017-11-15T14:10:08.420Z,101063.77
2017-11-15T14:13:09.720Z,101054.09
2017-11-15T14:16:11.743Z,101056.11
2017-11-15T14:19:13.052Z,101049.48
2017-11-15T14:22:15.049Z,101046.94
2017-11-15T14:25:16.332Z,101054.32
2017-11-15T14:28:17.620Z,101058.67
2017-11-15T14:31:18.951Z,101056.77
2017-11-15T14:34:20.974Z,101055.50
2017-11-15T14:37:22.260Z,101057.27
2017-11-15T14:40:23.566Z,101060.72
2017-11-15T14:43:24.893Z,101069.50
2017-11-15T14:46:26.208Z,101066.98
2017-11-15T14:49:27.497Z,101049.58
2017-11-15T14:52:28.794Z,101061.69
2017-11-15T14:55:30.149Z,101068.94
2017-11-15T14:58:31.465Z,101057.94
2017-11-15T15:01:32.796Z,101056.59
2017-11-15T15:04:34.096Z,101072.03
2017-11-15T15:07:35.404Z,101070.39
2017-11-15T15:10:36.700Z,101067.73
2017-11-15T15:13:37.995Z,101067.80
2017-11-15T15:16:39.261Z,101069.08
2017-11-15T15:19:40.536Z,101073.17
2017-11-15T15:22:41.796Z,101073.56
2017-11-15T15:25:43.830Z,101063.38
2017-11-15T15:28:45.115Z,101058.08
2017-11-15T15:31:47.220Z,101058.54
2017-11-15T15:34:48.529Z,101067.37
2017-11-15T15:37:49.792Z,101069.14
2017-11-15T15:40:51.828Z,101066.05
2017-11-15T15:43:53.155Z,101078.94
2017-11-15T15:46:55.297Z,101074.13
2017-11-15T15:49:56.532Z,101067.55
2017-11-15T15:52:57.825Z,101064.48
2017-11-15T15:55:59.071Z,101073.31
2017-11-15T15:59:00.392Z,101070.72
2017-11-15T16:02:01.709Z,101076.36
2017-11-15T16:05:03.712Z,101079.50
2017-11-15T16:08:05.023Z,101068.50
2017-11-15T16:11:07.072Z,101065.86
2017-11-15T16:14:08.361Z,101072.88
2017-11-15T16:17:09.628Z,101076.36
2017-11-15T16:20:10.934Z,101066.69
2017-11-15T16:23:12.919Z,101073.26
2017-11-15T16:26:14.211Z,101072.81
2017-11-15T16:29:15.462Z,101080.32
2017-11-15T16:32:16.807Z,101078.61
2017-11-15T16:35:18.147Z,101068.02
2017-11-15T16:38:19.457Z,101068.91
2017-11-15T16:41:21.544Z,101067.62
2017-11-15T16:44:22.881Z,101067.11
2017-11-15T16:47:24.169Z,101063.16
2017-11-15T16:50:25.456Z,101065.87
2017-11-15T16:53:27.488Z,101068.50
2017-11-15T16:56:30.328Z,101059.69
2017-11-15T16:59:32.342Z,101064.09
2017-11-15T17:02:33.660Z,101071.09
2017-11-15T17:05:34.936Z,101067.19
2017-11-15T17:08:36.229Z,101070.17
2017-11-15T17:11:38.269Z,101061.44
2017-11-15T17:14:39.584Z,101064.53
2017-11-15T17:17:41.048Z,101067.58
2017-11-15T17:20:42.360Z,101075.14
2017-11-15T17:23:43.728Z,101071.16
2017-11-15T17:26:45.072Z,101065.42
2017-11-15T17:29:46.408Z,101067.58
2017-11-15T17:32:48.504Z,101068.96
2017-11-15T17:35:49.877Z,101070.73
2017-11-15T17:38:51.187Z,101063.98
2017-11-15T17:41:52.507Z,101067.63
2017-11-15T17:44:53.821Z,101071.22
2017-11-15T17:47:55.811Z,101065.03
2017-11-15T17:50:58.073Z,101076.84
2017-11-15T17:53:59.454Z,101072.42
2017-11-15T17:57:01.572Z,101078.18
2017-11-15T18:00:02.987Z,101077.23
2017-11-15T18:03:04.345Z,101072.36
2017-11-15T18:06:05.698Z,101075.45
2017-11-15T18:09:07.085Z,101070.23
2017-11-15T18:12:09.649Z,101081.32
2017-11-15T18:15:10.997Z,101079.94
2017-11-15T18:18:12.359Z,101078.12
2017-11-15T18:21:13.727Z,101084.75
2017-11-15T18:24:15.123Z,101082.14
2017-11-15T18:27:16.437Z,101076.45
2017-11-15T18:30:17.790Z,101079.07
2017-11-15T18:33:19.971Z,101081.27
2017-11-15T18:36:21.374Z,101087.00
2017-11-15T18:39:23.691Z,101075.58
2017-11-15T18:42:25.061Z,101078.17
2017-11-15T18:45:27.587Z,101079.48
2017-11-15T18:48:28.969Z,101075.08
2017-11-15T18:51:30.473Z,101077.28
2017-11-15T18:54:31.968Z,101073.33
2017-11-15T18:57:34.723Z,101064.47
2017-11-15T19:00:36.588Z,101065.42
2017-11-15T19:03:37.988Z,101062.81
2017-11-15T19:06:39.337Z,101055.69
2017-11-15T19:09:40.722Z,101061.88
2017-11-15T19:12:42.873Z,101058.72
2017-11-15T19:15:44.374Z,101051.67
2017-11-15T19:18:45.821Z,101060.05
2017-11-15T19:21:47.952Z,101066.23
2017-11-15T19:24:51.705Z,101064.42
2017-11-15T19:27:53.598Z,101062.34
2017-11-15T19:30:55.028Z,101067.58
2017-11-15T19:33:57.301Z,101071.99
2017-11-15T19:36:58.684Z,101071.61
2017-11-15T19:40:00.024Z,101065.78
2017-11-15T19:43:01.481Z,101062.33
2017-11-15T19:46:05.059Z,101067.55
2017-11-15T19:49:06.647Z,101073.23
2017-11-15T19:52:08.913Z,101070.16
2017-11-15T19:55:10.271Z,101065.80
2017-11-15T19:58:13.043Z,101062.31
2017-11-15T20:01:14.543Z,101066.69
2017-11-15T20:04:16.044Z,101060.13
2017-11-15T20:07:18.228Z,101063.09
2017-11-15T20:10:20.931Z,101071.98
2017-11-15T20:13:22.300Z,101066.67
2017-11-15T20:16:24.993Z,101060.93
2017-11-15T20:19:26.507Z,101060.94
2017-11-15T20:22:28.932Z,101062.64
2017-11-15T20:25:30.277Z,101047.61
2017-11-15T20:28:31.606Z,101054.75
2017-11-15T20:31:34.369Z,101052.28
2017-11-15T20:34:35.679Z,101061.81
2017-11-15T20:37:37.048Z,101053.61
2017-11-15T20:40:38.794Z,101055.70
2017-11-15T20:43:40.176Z,101047.80
2017-11-15T20:46:42.649Z,101047.69
2017-11-15T20:49:44.628Z,101043.71
2017-11-15T20:52:48.053Z,101049.45
2017-11-15T20:55:50.723Z,101049.50
2017-11-15T20:58:52.757Z,101041.05
2017-11-15T21:01:54.192Z,101044.58
2017-11-15T21:04:55.807Z,101039.72
2017-11-15T21:07:58.372Z,101039.70
2017-11-15T21:11:00.580Z,101035.02
2017-11-15T21:14:02.035Z,101033.69
2017-11-15T21:17:03.444Z,101033.30
2017-11-15T21:20:04.849Z,101046.41
2017-11-15T21:23:06.200Z,101043.44
2017-11-15T21:26:07.505Z,101048.26
2017-11-15T21:29:10.031Z,101040.16
2017-11-15T21:32:11.805Z,101041.43
2017-11-15T21:35:13.236Z,101039.70
2017-11-15T21:38:17.786Z,101047.69
2017-11-15T21:41:19.448Z,101044.14
2017-11-15T21:44:21.165Z,101045.45
2017-11-15T21:47:23.214Z,101044.64
2017-11-15T21:50:26.297Z,101046.80
2017-11-15T21:53:28.214Z,101049.08
2017-11-15T21:56:29.614Z,101052.59
2017-11-15T21:59:31.110Z,101042.94
2017-11-15T22:02:32.734Z,101057.02
2017-11-15T22:05:34.546Z,101055.25
2017-11-15T22:08:35.986Z,101046.05
2017-11-15T22:11:39.590Z,101053.11
2017-11-15T22:14:41.136Z,101066.84
2017-11-15T22:17:42.632Z,101060.63
2017-11-15T22:20:44.055Z,101049.60
2017-11-15T22:23:45.726Z,101047.39
2017-11-15T22:26:47.140Z,101053.58
2017-11-15T22:29:49.319Z,101046.58
2017-11-15T22:32:50.745Z,101042.34
2017-11-15T22:35:52.983Z,101038.61
2017-11-15T22:38:54.517Z,101038.24
2017-11-15T22:41:55.865Z,101053.98
2017-11-15T22:44:57.339Z,101045.31
2017-11-15T22:47:58.771Z,101035.34
2017-11-15T22:51:00.224Z,101044.25
2017-11-15T22:54:01.650Z,101045.67
2017-11-15T22:57:03.044Z,101042.94
2017-11-15T23:00:04.616Z,101033.92
2017-11-15T23:03:06.028Z,101027.81
2017-11-15T23:06:07.455Z,101028.11
2017-11-15T23:09:09.598Z,101031.73
2017-11-15T23:12:11.117Z,101033.47
2017-11-15T23:15:12.567Z,101029.96
2017-11-15T23:18:13.968Z,101019.09
2017-11-15T23:21:16.114Z,101027.27
2017-11-15T23:24:17.594Z,101020.30
2017-11-15T23:27:19.790Z,101007.17
2017-11-15T23:30:21.928Z,101010.24
2017-11-15T23:33:23.335Z,101005.57
2017-11-15T23:36:24.783Z,101000.28
2017-11-15T23:39:26.230Z,101000.95
2017-11-15T23:42:27.645Z,100994.26
2017-11-15T23:45:29.821Z,100991.31
2017-11-15T23:48:31.981Z,100997.89
2017-11-15T23:51:34.073Z,100985.36
2017-11-15T23:54:35.452Z,100982.80
2017-11-15T23:57:36.769Z,100990.22
